sensor_id;sensor_type;location;lat;lon;timestamp;temperature;humidity
69731;SHT31;56996;48.138;11.538;2022-07-23T00:00:19;25.49;50.27
69731;SHT31;56996;48.138;11.538;2022-07-23T00:02:46;25.47;50.22
69731;SHT31;56996;48.138;11.538;2022-07-23T00:05:13;25.43;50.12
69731;SHT31;56996;48.138;11.538;2022-07-23T00:07:40;25.40;50.11
69731;SHT31;56996;48.138;11.538;2022-07-23T00:10:07;25.35;49.99
69731;SHT31;56996;48.138;11.538;2022-07-23T00:12:35;25.32;49.93
69731;SHT31;56996;48.138;11.538;2022-07-23T00:15:16;25.30;49.77
69731;SHT31;56996;48.138;11.538;2022-07-23T00:17:42;25.27;49.62
69731;SHT31;56996;48.138;11.538;2022-07-23T00:20:09;25.25;49.49
69731;SHT31;56996;48.138;11.538;2022-07-23T00:22:44;25.23;49.30
69731;SHT31;56996;48.138;11.538;2022-07-23T00:25:22;25.23;49.04
69731;SHT31;56996;48.138;11.538;2022-07-23T00:27:55;25.20;48.81
69731;SHT31;56996;48.138;11.538;2022-07-23T00:30:23;25.18;48.74
69731;SHT31;56996;48.138;11.538;2022-07-23T00:32:54;25.17;48.73
69731;SHT31;56996;48.138;11.538;2022-07-23T00:35:24;25.14;48.73
69731;SHT31;56996;48.138;11.538;2022-07-23T00:37:54;25.13;48.70
69731;SHT31;56996;48.138;11.538;2022-07-23T00:40:22;25.11;48.71
69731;SHT31;56996;48.138;11.538;2022-07-23T00:42:49;25.09;48.92
69731;SHT31;56996;48.138;11.538;2022-07-23T00:45:16;25.06;49.16
69731;SHT31;56996;48.138;11.538;2022-07-23T00:47:44;25.03;49.36
69731;SHT31;56996;48.138;11.538;2022-07-23T00:50:12;24.99;49.60
69731;SHT31;56996;48.138;11.538;2022-07-23T00:52:40;24.94;49.96
69731;SHT31;56996;48.138;11.538;2022-07-23T00:55:08;24.90;50.10
69731;SHT31;56996;48.138;11.538;2022-07-23T00:57:37;24.88;50.25
69731;SHT31;56996;48.138;11.538;2022-07-23T01:00:07;24.83;50.27
69731;SHT31;56996;48.138;11.538;2022-07-23T01:02:38;24.80;50.29
69731;SHT31;56996;48.138;11.538;2022-07-23T01:05:06;24.77;50.36
69731;SHT31;56996;48.138;11.538;2022-07-23T01:07:37;24.74;50.70
69731;SHT31;56996;48.138;11.538;2022-07-23T01:10:05;24.71;50.88
69731;SHT31;56996;48.138;11.538;2022-07-23T01:12:53;24.70;51.10
69731;SHT31;56996;48.138;11.538;2022-07-23T01:15:21;24.70;51.66
69731;SHT31;56996;48.138;11.538;2022-07-23T01:17:48;24.68;52.02
69731;SHT31;56996;48.138;11.538;2022-07-23T01:20:16;24.67;52.30
69731;SHT31;56996;48.138;11.538;2022-07-23T01:22:44;24.66;52.48
69731;SHT31;56996;48.138;11.538;2022-07-23T01:25:12;24.65;52.13
69731;SHT31;56996;48.138;11.538;2022-07-23T01:27:44;24.59;51.01
69731;SHT31;56996;48.138;11.538;2022-07-23T01:30:10;24.45;50.17
69731;SHT31;56996;48.138;11.538;2022-07-23T01:32:39;24.21;51.11
69731;SHT31;56996;48.138;11.538;2022-07-23T01:35:06;23.79;52.29
69731;SHT31;56996;48.138;11.538;2022-07-23T01:37:35;23.38;52.91
69731;SHT31;56996;48.138;11.538;2022-07-23T01:40:04;23.11;53.80
69731;SHT31;56996;48.138;11.538;2022-07-23T01:42:32;22.74;55.61
69731;SHT31;56996;48.138;11.538;2022-07-23T01:45:02;22.47;56.47
69731;SHT31;56996;48.138;11.538;2022-07-23T01:47:31;22.32;57.52
69731;SHT31;56996;48.138;11.538;2022-07-23T01:49:58;22.25;58.16
69731;SHT31;56996;48.138;11.538;2022-07-23T01:52:43;22.14;59.01
69731;SHT31;56996;48.138;11.538;2022-07-23T01:55:10;21.99;59.65
69731;SHT31;56996;48.138;11.538;2022-07-23T01:57:46;21.84;60.55
69731;SHT31;56996;48.138;11.538;2022-07-23T02:00:16;21.74;61.46
69731;SHT31;56996;48.138;11.538;2022-07-23T02:02:44;21.61;62.41
69731;SHT31;56996;48.138;11.538;2022-07-23T02:05:11;21.54;62.23
69731;SHT31;56996;48.138;11.538;2022-07-23T02:07:38;21.51;62.64
69731;SHT31;56996;48.138;11.538;2022-07-23T02:10:04;21.43;63.51
69731;SHT31;56996;48.138;11.538;2022-07-23T02:12:32;21.35;62.83
69731;SHT31;56996;48.138;11.538;2022-07-23T02:14:59;21.33;63.60
69731;SHT31;56996;48.138;11.538;2022-07-23T02:17:26;21.27;64.23
69731;SHT31;56996;48.138;11.538;2022-07-23T02:19:52;21.22;63.97
69731;SHT31;56996;48.138;11.538;2022-07-23T02:22:21;21.18;64.37
69731;SHT31;56996;48.138;11.538;2022-07-23T02:24:48;21.05;65.57
69731;SHT31;56996;48.138;11.538;2022-07-23T02:27:15;20.94;65.79
69731;SHT31;56996;48.138;11.538;2022-07-23T02:29:42;20.85;66.02
69731;SHT31;56996;48.138;11.538;2022-07-23T02:32:09;20.82;65.98
69731;SHT31;56996;48.138;11.538;2022-07-23T02:34:36;20.83;65.76
69731;SHT31;56996;48.138;11.538;2022-07-23T02:37:02;20.84;65.87
69731;SHT31;56996;48.138;11.538;2022-07-23T02:39:30;20.83;65.62
69731;SHT31;56996;48.138;11.538;2022-07-23T02:41:57;20.84;65.70
69731;SHT31;56996;48.138;11.538;2022-07-23T02:44:24;20.89;65.74
69731;SHT31;56996;48.138;11.538;2022-07-23T02:46:51;20.92;65.88
69731;SHT31;56996;48.138;11.538;2022-07-23T02:49:18;20.93;65.96
69731;SHT31;56996;48.138;11.538;2022-07-23T02:51:46;20.98;66.04
69731;SHT31;56996;48.138;11.538;2022-07-23T02:54:12;21.07;66.04
69731;SHT31;56996;48.138;11.538;2022-07-23T02:56:39;21.15;66.49
69731;SHT31;56996;48.138;11.538;2022-07-23T02:59:06;21.20;67.44
69731;SHT31;56996;48.138;11.538;2022-07-23T03:01:33;21.15;67.65
69731;SHT31;56996;48.138;11.538;2022-07-23T03:04:01;21.06;67.54
69731;SHT31;56996;48.138;11.538;2022-07-23T03:06:28;21.04;67.95
69731;SHT31;56996;48.138;11.538;2022-07-23T03:08:54;21.01;67.21
69731;SHT31;56996;48.138;11.538;2022-07-23T03:11:21;21.02;66.80
69731;SHT31;56996;48.138;11.538;2022-07-23T03:13:48;21.01;67.00
69731;SHT31;56996;48.138;11.538;2022-07-23T03:16:14;21.00;67.17
69731;SHT31;56996;48.138;11.538;2022-07-23T03:18:41;21.02;67.26
69731;SHT31;56996;48.138;11.538;2022-07-23T03:21:08;21.03;67.42
69731;SHT31;56996;48.138;11.538;2022-07-23T03:23:36;21.03;67.85
69731;SHT31;56996;48.138;11.538;2022-07-23T03:26:03;21.04;67.84
69731;SHT31;56996;48.138;11.538;2022-07-23T03:28:30;21.05;68.02
69731;SHT31;56996;48.138;11.538;2022-07-23T03:30:57;21.01;68.15
69731;SHT31;56996;48.138;11.538;2022-07-23T03:33:24;20.99;68.21
69731;SHT31;56996;48.138;11.538;2022-07-23T03:35:52;20.98;68.12
69731;SHT31;56996;48.138;11.538;2022-07-23T03:38:23;20.95;68.04
69731;SHT31;56996;48.138;11.538;2022-07-23T03:40:49;20.93;68.09
69731;SHT31;56996;48.138;11.538;2022-07-23T03:43:16;20.89;67.92
69731;SHT31;56996;48.138;11.538;2022-07-23T03:45:43;20.80;68.29
69731;SHT31;56996;48.138;11.538;2022-07-23T03:48:10;20.72;67.99
69731;SHT31;56996;48.138;11.538;2022-07-23T03:50:37;20.74;68.00
69731;SHT31;56996;48.138;11.538;2022-07-23T03:53:04;20.78;67.95
69731;SHT31;56996;48.138;11.538;2022-07-23T03:55:32;20.83;68.02
69731;SHT31;56996;48.138;11.538;2022-07-23T03:57:59;20.84;67.91
69731;SHT31;56996;48.138;11.538;2022-07-23T04:00:26;20.84;68.02
69731;SHT31;56996;48.138;11.538;2022-07-23T04:02:53;20.86;67.74
69731;SHT31;56996;48.138;11.538;2022-07-23T04:05:20;20.90;67.17
69731;SHT31;56996;48.138;11.538;2022-07-23T04:07:49;20.94;67.45
69731;SHT31;56996;48.138;11.538;2022-07-23T04:10:16;20.98;67.27
69731;SHT31;56996;48.138;11.538;2022-07-23T04:12:43;21.01;67.23
69731;SHT31;56996;48.138;11.538;2022-07-23T04:15:09;21.03;67.19
69731;SHT31;56996;48.138;11.538;2022-07-23T04:17:36;21.06;67.00
69731;SHT31;56996;48.138;11.538;2022-07-23T04:20:03;21.09;66.63
69731;SHT31;56996;48.138;11.538;2022-07-23T04:22:35;21.10;66.60
69731;SHT31;56996;48.138;11.538;2022-07-23T04:25:02;21.11;66.39
69731;SHT31;56996;48.138;11.538;2022-07-23T04:27:30;21.12;66.84
69731;SHT31;56996;48.138;11.538;2022-07-23T04:29:59;21.14;66.84
69731;SHT31;56996;48.138;11.538;2022-07-23T04:32:27;21.15;66.85
69731;SHT31;56996;48.138;11.538;2022-07-23T04:34:54;21.17;66.67
69731;SHT31;56996;48.138;11.538;2022-07-23T04:37:21;21.18;66.49
69731;SHT31;56996;48.138;11.538;2022-07-23T04:39:48;21.19;66.99
69731;SHT31;56996;48.138;11.538;2022-07-23T04:42:15;21.22;66.93
69731;SHT31;56996;48.138;11.538;2022-07-23T04:44:42;21.24;66.92
69731;SHT31;56996;48.138;11.538;2022-07-23T04:47:09;21.26;66.88
69731;SHT31;56996;48.138;11.538;2022-07-23T04:49:40;21.27;66.84
69731;SHT31;56996;48.138;11.538;2022-07-23T04:52:07;21.27;67.12
69731;SHT31;56996;48.138;11.538;2022-07-23T04:54:33;21.29;67.28
69731;SHT31;56996;48.138;11.538;2022-07-23T04:57:00;21.30;66.86
69731;SHT31;56996;48.138;11.538;2022-07-23T04:59:27;21.31;66.43
69731;SHT31;56996;48.138;11.538;2022-07-23T05:01:57;21.34;65.88
69731;SHT31;56996;48.138;11.538;2022-07-23T05:04:24;21.38;65.56
69731;SHT31;56996;48.138;11.538;2022-07-23T05:06:51;21.42;65.32
69731;SHT31;56996;48.138;11.538;2022-07-23T05:09:18;21.48;64.94
69731;SHT31;56996;48.138;11.538;2022-07-23T05:11:45;21.53;64.72
69731;SHT31;56996;48.138;11.538;2022-07-23T05:14:12;21.56;64.50
69731;SHT31;56996;48.138;11.538;2022-07-23T05:16:39;21.59;64.22
69731;SHT31;56996;48.138;11.538;2022-07-23T05:19:10;21.63;64.04
69731;SHT31;56996;48.138;11.538;2022-07-23T05:21:38;21.63;63.34
69731;SHT31;56996;48.138;11.538;2022-07-23T05:24:05;21.64;63.17
69731;SHT31;56996;48.138;11.538;2022-07-23T05:26:33;21.65;63.00
69731;SHT31;56996;48.138;11.538;2022-07-23T05:29:00;21.66;63.02
69731;SHT31;56996;48.138;11.538;2022-07-23T05:31:27;21.69;63.20
69731;SHT31;56996;48.138;11.538;2022-07-23T05:33:55;21.74;63.12
69731;SHT31;56996;48.138;11.538;2022-07-23T05:36:21;21.77;63.02
69731;SHT31;56996;48.138;11.538;2022-07-23T05:38:54;21.79;63.01
69731;SHT31;56996;48.138;11.538;2022-07-23T05:41:21;21.81;62.84
69731;SHT31;56996;48.138;11.538;2022-07-23T05:43:48;21.83;62.63
69731;SHT31;56996;48.138;11.538;2022-07-23T05:46:14;21.83;62.36
69731;SHT31;56996;48.138;11.538;2022-07-23T05:48:42;21.85;62.20
69731;SHT31;56996;48.138;11.538;2022-07-23T05:51:26;21.87;61.89
69731;SHT31;56996;48.138;11.538;2022-07-23T05:53:53;21.89;61.44
69731;SHT31;56996;48.138;11.538;2022-07-23T05:56:23;21.88;61.65
69731;SHT31;56996;48.138;11.538;2022-07-23T05:58:50;21.89;61.90
69731;SHT31;56996;48.138;11.538;2022-07-23T06:01:17;21.89;61.95
69731;SHT31;56996;48.138;11.538;2022-07-23T06:03:49;21.88;62.03
69731;SHT31;56996;48.138;11.538;2022-07-23T06:06:16;21.89;62.12
69731;SHT31;56996;48.138;11.538;2022-07-23T06:08:44;21.94;62.15
69731;SHT31;56996;48.138;11.538;2022-07-23T06:11:11;21.96;62.27
69731;SHT31;56996;48.138;11.538;2022-07-23T06:13:38;21.98;62.56
69731;SHT31;56996;48.138;11.538;2022-07-23T06:16:05;22.00;63.00
69731;SHT31;56996;48.138;11.538;2022-07-23T06:18:32;22.02;62.92
69731;SHT31;56996;48.138;11.538;2022-07-23T06:20:59;22.01;63.21
69731;SHT31;56996;48.138;11.538;2022-07-23T06:23:26;22.01;63.07
69731;SHT31;56996;48.138;11.538;2022-07-23T06:25:53;21.99;62.94
69731;SHT31;56996;48.138;11.538;2022-07-23T06:28:20;21.99;63.24
69731;SHT31;56996;48.138;11.538;2022-07-23T06:30:47;21.97;63.02
69731;SHT31;56996;48.138;11.538;2022-07-23T06:33:14;21.94;63.28
69731;SHT31;56996;48.138;11.538;2022-07-23T06:35:43;21.89;63.80
69731;SHT31;56996;48.138;11.538;2022-07-23T06:38:10;21.86;64.13
69731;SHT31;56996;48.138;11.538;2022-07-23T06:40:37;21.84;63.86
69731;SHT31;56996;48.138;11.538;2022-07-23T06:43:04;21.83;63.80
69731;SHT31;56996;48.138;11.538;2022-07-23T06:45:33;21.84;64.05
69731;SHT31;56996;48.138;11.538;2022-07-23T06:48:00;21.84;64.42
69731;SHT31;56996;48.138;11.538;2022-07-23T06:50:28;21.85;64.58
69731;SHT31;56996;48.138;11.538;2022-07-23T06:52:55;21.89;64.50
69731;SHT31;56996;48.138;11.538;2022-07-23T06:55:22;21.93;64.39
69731;SHT31;56996;48.138;11.538;2022-07-23T06:57:49;21.97;64.30
69731;SHT31;56996;48.138;11.538;2022-07-23T07:00:16;22.03;64.23
69731;SHT31;56996;48.138;11.538;2022-07-23T07:02:42;22.11;64.34
69731;SHT31;56996;48.138;11.538;2022-07-23T07:05:09;22.19;63.74
69731;SHT31;56996;48.138;11.538;2022-07-23T07:07:36;22.21;63.64
69731;SHT31;56996;48.138;11.538;2022-07-23T07:10:03;22.26;63.91
69731;SHT31;56996;48.138;11.538;2022-07-23T07:12:31;22.31;64.04
69731;SHT31;56996;48.138;11.538;2022-07-23T07:14:57;22.33;64.33
69731;SHT31;56996;48.138;11.538;2022-07-23T07:17:24;22.38;64.32
69731;SHT31;56996;48.138;11.538;2022-07-23T07:19:51;22.42;64.19
69731;SHT31;56996;48.138;11.538;2022-07-23T07:22:18;22.39;64.15
69731;SHT31;56996;48.138;11.538;2022-07-23T07:24:44;22.38;64.09
69731;SHT31;56996;48.138;11.538;2022-07-23T07:27:11;22.43;64.36
69731;SHT31;56996;48.138;11.538;2022-07-23T07:29:38;22.47;64.70
69731;SHT31;56996;48.138;11.538;2022-07-23T07:32:04;22.55;64.74
69731;SHT31;56996;48.138;11.538;2022-07-23T07:34:31;22.64;65.01
69731;SHT31;56996;48.138;11.538;2022-07-23T07:36:59;22.66;64.68
69731;SHT31;56996;48.138;11.538;2022-07-23T07:39:25;22.67;64.81
69731;SHT31;56996;48.138;11.538;2022-07-23T07:41:52;22.68;64.77
69731;SHT31;56996;48.138;11.538;2022-07-23T07:44:20;22.68;64.78
69731;SHT31;56996;48.138;11.538;2022-07-23T07:46:46;22.63;64.56
69731;SHT31;56996;48.138;11.538;2022-07-23T07:49:13;22.53;64.89
69731;SHT31;56996;48.138;11.538;2022-07-23T07:51:41;22.52;64.92
69731;SHT31;56996;48.138;11.538;2022-07-23T07:54:11;22.48;64.69
69731;SHT31;56996;48.138;11.538;2022-07-23T07:56:39;22.43;64.79
69731;SHT31;56996;48.138;11.538;2022-07-23T07:59:06;22.42;64.69
69731;SHT31;56996;48.138;11.538;2022-07-23T08:01:33;22.46;64.62
69731;SHT31;56996;48.138;11.538;2022-07-23T08:04:00;22.51;64.47
69731;SHT31;56996;48.138;11.538;2022-07-23T08:06:27;22.52;64.27
69731;SHT31;56996;48.138;11.538;2022-07-23T08:08:54;22.55;64.07
69731;SHT31;56996;48.138;11.538;2022-07-23T08:11:21;22.58;64.13
69731;SHT31;56996;48.138;11.538;2022-07-23T08:13:47;22.63;64.62
69731;SHT31;56996;48.138;11.538;2022-07-23T08:16:14;22.70;65.39
69731;SHT31;56996;48.138;11.538;2022-07-23T08:18:41;22.74;64.77
69731;SHT31;56996;48.138;11.538;2022-07-23T08:21:08;22.74;64.79
69731;SHT31;56996;48.138;11.538;2022-07-23T08:23:35;22.78;64.90
69731;SHT31;56996;48.138;11.538;2022-07-23T08:26:01;22.84;64.68
69731;SHT31;56996;48.138;11.538;2022-07-23T08:28:28;22.92;63.95
69731;SHT31;56996;48.138;11.538;2022-07-23T08:30:55;22.99;63.34
69731;SHT31;56996;48.138;11.538;2022-07-23T08:33:22;23.02;63.09
69731;SHT31;56996;48.138;11.538;2022-07-23T08:36:00;23.09;62.83
69731;SHT31;56996;48.138;11.538;2022-07-23T08:38:31;23.19;62.58
69731;SHT31;56996;48.138;11.538;2022-07-23T08:40:59;23.34;62.07
69731;SHT31;56996;48.138;11.538;2022-07-23T08:43:26;23.64;61.48
69731;SHT31;56996;48.138;11.538;2022-07-23T08:45:58;23.84;60.95
69731;SHT31;56996;48.138;11.538;2022-07-23T08:48:28;24.03;60.26
69731;SHT31;56996;48.138;11.538;2022-07-23T08:50:59;24.15;59.80
69731;SHT31;56996;48.138;11.538;2022-07-23T08:53:29;24.30;59.24
69731;SHT31;56996;48.138;11.538;2022-07-23T08:55:59;24.39;59.09
69731;SHT31;56996;48.138;11.538;2022-07-23T08:58:28;24.46;58.80
69731;SHT31;56996;48.138;11.538;2022-07-23T09:00:56;24.53;58.44
69731;SHT31;56996;48.138;11.538;2022-07-23T09:03:31;24.55;58.38
69731;SHT31;56996;48.138;11.538;2022-07-23T09:06:00;24.59;58.03
69731;SHT31;56996;48.138;11.538;2022-07-23T09:08:35;24.58;57.67
69731;SHT31;56996;48.138;11.538;2022-07-23T09:11:08;24.48;57.95
69731;SHT31;56996;48.138;11.538;2022-07-23T09:16:09;24.53;57.92
69731;SHT31;56996;48.138;11.538;2022-07-23T09:21:08;24.56;58.38
69731;SHT31;56996;48.138;11.538;2022-07-23T09:23:41;24.64;58.47
69731;SHT31;56996;48.138;11.538;2022-07-23T09:26:29;24.87;58.32
69731;SHT31;56996;48.138;11.538;2022-07-23T09:29:07;25.77;56.95
69731;SHT31;56996;48.138;11.538;2022-07-23T09:31:53;27.06;54.49
69731;SHT31;56996;48.138;11.538;2022-07-23T09:34:26;27.94;52.31
69731;SHT31;56996;48.138;11.538;2022-07-23T09:36:56;28.33;51.63
69731;SHT31;56996;48.138;11.538;2022-07-23T09:39:35;29.18;50.18
69731;SHT31;56996;48.138;11.538;2022-07-23T09:42:19;30.21;48.11
69731;SHT31;56996;48.138;11.538;2022-07-23T09:44:51;31.15;45.76
69731;SHT31;56996;48.138;11.538;2022-07-23T09:47:20;31.61;44.37
69731;SHT31;56996;48.138;11.538;2022-07-23T09:52:43;32.42;42.03
69731;SHT31;56996;48.138;11.538;2022-07-23T09:55:14;32.63;41.10
69731;SHT31;56996;48.138;11.538;2022-07-23T09:57:43;32.77;40.80
69731;SHT31;56996;48.138;11.538;2022-07-23T10:00:13;32.88;39.68
69731;SHT31;56996;48.138;11.538;2022-07-23T10:02:40;32.81;39.52
69731;SHT31;56996;48.138;11.538;2022-07-23T10:05:25;32.54;38.62
69731;SHT31;56996;48.138;11.538;2022-07-23T10:08:12;31.94;38.14
69731;SHT31;56996;48.138;11.538;2022-07-23T10:10:58;31.79;38.80
69731;SHT31;56996;48.138;11.538;2022-07-23T10:13:37;31.70;38.00
69731;SHT31;56996;48.138;11.538;2022-07-23T10:16:18;31.46;38.47
69731;SHT31;56996;48.138;11.538;2022-07-23T10:18:53;31.29;38.74
69731;SHT31;56996;48.138;11.538;2022-07-23T10:21:38;31.32;38.86
69731;SHT31;56996;48.138;11.538;2022-07-23T10:36:08;31.24;38.44
69731;SHT31;56996;48.138;11.538;2022-07-23T10:39:22;31.18;38.38
69731;SHT31;56996;48.138;11.538;2022-07-23T10:42:07;31.28;38.57
69731;SHT31;56996;48.138;11.538;2022-07-23T10:44:45;31.27;37.95
69731;SHT31;56996;48.138;11.538;2022-07-23T10:47:21;31.11;37.53
69731;SHT31;56996;48.138;11.538;2022-07-23T10:50:29;30.86;37.62
69731;SHT31;56996;48.138;11.538;2022-07-23T10:55:40;30.60;36.95
69731;SHT31;56996;48.138;11.538;2022-07-23T10:58:17;30.47;37.15
69731;SHT31;56996;48.138;11.538;2022-07-23T11:00:47;30.35;37.18
69731;SHT31;56996;48.138;11.538;2022-07-23T11:03:32;30.24;37.51
69731;SHT31;56996;48.138;11.538;2022-07-23T11:06:03;30.26;37.95
69731;SHT31;56996;48.138;11.538;2022-07-23T11:08:31;30.26;37.87
69731;SHT31;56996;48.138;11.538;2022-07-23T11:16:08;30.03;38.33
69731;SHT31;56996;48.138;11.538;2022-07-23T11:26:59;29.28;39.47
69731;SHT31;56996;48.138;11.538;2022-07-23T11:37:04;29.08;39.75
69731;SHT31;56996;48.138;11.538;2022-07-23T11:39:37;28.99;39.88
69731;SHT31;56996;48.138;11.538;2022-07-23T11:42:06;28.88;40.06
69731;SHT31;56996;48.138;11.538;2022-07-23T11:44:35;28.79;40.40
69731;SHT31;56996;48.138;11.538;2022-07-23T11:47:08;28.78;40.42
69731;SHT31;56996;48.138;11.538;2022-07-23T11:49:37;28.67;40.39
69731;SHT31;56996;48.138;11.538;2022-07-23T11:52:08;28.62;40.71
69731;SHT31;56996;48.138;11.538;2022-07-23T11:55:13;28.65;40.87
69731;SHT31;56996;48.138;11.538;2022-07-23T11:57:36;28.61;41.13
69731;SHT31;56996;48.138;11.538;2022-07-23T12:00:11;28.59;41.20
69731;SHT31;56996;48.138;11.538;2022-07-23T12:02:45;28.56;41.32
69731;SHT31;56996;48.138;11.538;2022-07-23T12:05:19;28.50;41.30
69731;SHT31;56996;48.138;11.538;2022-07-23T12:07:50;28.37;41.59
69731;SHT31;56996;48.138;11.538;2022-07-23T12:10:27;28.34;41.71
69731;SHT31;56996;48.138;11.538;2022-07-23T12:12:58;28.33;41.94
69731;SHT31;56996;48.138;11.538;2022-07-23T12:15:37;28.26;42.31
69731;SHT31;56996;48.138;11.538;2022-07-23T12:18:14;28.30;42.56
69731;SHT31;56996;48.138;11.538;2022-07-23T12:20:45;28.30;42.63
69731;SHT31;56996;48.138;11.538;2022-07-23T12:23:17;28.35;42.74
69731;SHT31;56996;48.138;11.538;2022-07-23T12:25:47;28.32;42.89
69731;SHT31;56996;48.138;11.538;2022-07-23T12:28:17;28.26;43.01
69731;SHT31;56996;48.138;11.538;2022-07-23T12:30:52;28.21;43.10
69731;SHT31;56996;48.138;11.538;2022-07-23T12:33:22;28.17;43.15
69731;SHT31;56996;48.138;11.538;2022-07-23T12:36:06;28.10;43.23
69731;SHT31;56996;48.138;11.538;2022-07-23T12:38:37;27.99;43.38
69731;SHT31;56996;48.138;11.538;2022-07-23T12:41:17;27.85;43.60
69731;SHT31;56996;48.138;11.538;2022-07-23T12:43:45;27.79;44.20
69731;SHT31;56996;48.138;11.538;2022-07-23T12:46:13;27.72;44.51
69731;SHT31;56996;48.138;11.538;2022-07-23T12:53:57;27.61;44.74
69731;SHT31;56996;48.138;11.538;2022-07-23T12:56:36;27.64;44.60
69731;SHT31;56996;48.138;11.538;2022-07-23T12:59:07;27.71;44.46
69731;SHT31;56996;48.138;11.538;2022-07-23T13:01:38;27.71;44.56
69731;SHT31;56996;48.138;11.538;2022-07-23T13:04:14;27.70;44.47
69731;SHT31;56996;48.138;11.538;2022-07-23T13:06:50;27.76;44.40
69731;SHT31;56996;48.138;11.538;2022-07-23T13:09:31;27.85;44.32
69731;SHT31;56996;48.138;11.538;2022-07-23T13:12:07;27.94;44.31
69731;SHT31;56996;48.138;11.538;2022-07-23T13:14:37;27.99;44.22
69731;SHT31;56996;48.138;11.538;2022-07-23T13:17:04;28.04;44.15
69731;SHT31;56996;48.138;11.538;2022-07-23T13:19:32;28.07;44.16
69731;SHT31;56996;48.138;11.538;2022-07-23T13:22:00;28.14;44.18
69731;SHT31;56996;48.138;11.538;2022-07-23T13:24:34;28.08;44.23
69731;SHT31;56996;48.138;11.538;2022-07-23T13:27:04;28.05;44.36
69731;SHT31;56996;48.138;11.538;2022-07-23T13:29:36;27.97;44.52
69731;SHT31;56996;48.138;11.538;2022-07-23T13:32:03;27.85;44.76
69731;SHT31;56996;48.138;11.538;2022-07-23T13:34:36;27.74;45.11
69731;SHT31;56996;48.138;11.538;2022-07-23T13:37:06;27.70;45.26
69731;SHT31;56996;48.138;11.538;2022-07-23T13:39:33;27.67;45.38
69731;SHT31;56996;48.138;11.538;2022-07-23T13:42:04;27.77;45.23
69731;SHT31;56996;48.138;11.538;2022-07-23T13:44:33;27.93;45.13
69731;SHT31;56996;48.138;11.538;2022-07-23T13:47:01;28.21;44.85
69731;SHT31;56996;48.138;11.538;2022-07-23T13:49:30;28.33;44.49
69731;SHT31;56996;48.138;11.538;2022-07-23T13:51:57;28.21;44.53
69731;SHT31;56996;48.138;11.538;2022-07-23T13:54:24;28.04;44.63
69731;SHT31;56996;48.138;11.538;2022-07-23T13:56:54;27.81;45.03
69731;SHT31;56996;48.138;11.538;2022-07-23T13:59:23;27.78;45.12
69731;SHT31;56996;48.138;11.538;2022-07-23T14:01:52;27.79;45.16
69731;SHT31;56996;48.138;11.538;2022-07-23T14:04:40;27.75;45.14
69731;SHT31;56996;48.138;11.538;2022-07-23T14:07:27;27.74;45.14
69731;SHT31;56996;48.138;11.538;2022-07-23T14:09:53;27.73;45.22
69731;SHT31;56996;48.138;11.538;2022-07-23T14:12:20;27.66;45.30
69731;SHT31;56996;48.138;11.538;2022-07-23T14:14:49;27.59;45.25
69731;SHT31;56996;48.138;11.538;2022-07-23T14:17:17;27.50;45.59
69731;SHT31;56996;48.138;11.538;2022-07-23T14:19:45;27.32;45.66
69731;SHT31;56996;48.138;11.538;2022-07-23T14:22:12;27.25;45.74
69731;SHT31;56996;48.138;11.538;2022-07-23T14:24:39;27.25;45.80
69731;SHT31;56996;48.138;11.538;2022-07-23T14:27:06;27.30;45.70
69731;SHT31;56996;48.138;11.538;2022-07-23T14:29:33;27.34;45.67
69731;SHT31;56996;48.138;11.538;2022-07-23T14:32:02;27.43;45.60
69731;SHT31;56996;48.138;11.538;2022-07-23T14:34:32;27.42;45.58
69731;SHT31;56996;48.138;11.538;2022-07-23T14:37:02;27.36;45.79
69731;SHT31;56996;48.138;11.538;2022-07-23T14:39:29;27.34;45.85
69731;SHT31;56996;48.138;11.538;2022-07-23T14:41:57;27.34;45.97
69731;SHT31;56996;48.138;11.538;2022-07-23T14:44:24;27.42;45.99
69731;SHT31;56996;48.138;11.538;2022-07-23T14:46:51;27.48;45.99
69731;SHT31;56996;48.138;11.538;2022-07-23T14:49:19;27.58;45.91
69731;SHT31;56996;48.138;11.538;2022-07-23T14:51:46;27.63;45.77
69731;SHT31;56996;48.138;11.538;2022-07-23T14:54:14;27.68;45.67
69731;SHT31;56996;48.138;11.538;2022-07-23T14:56:41;27.66;45.78
69731;SHT31;56996;48.138;11.538;2022-07-23T14:59:10;27.66;45.85
69731;SHT31;56996;48.138;11.538;2022-07-23T15:01:37;27.60;45.91
69731;SHT31;56996;48.138;11.538;2022-07-23T15:04:05;27.56;45.99
69731;SHT31;56996;48.138;11.538;2022-07-23T15:06:52;27.52;46.10
69731;SHT31;56996;48.138;11.538;2022-07-23T15:09:19;27.49;46.27
69731;SHT31;56996;48.138;11.538;2022-07-23T15:11:47;27.55;46.27
69731;SHT31;56996;48.138;11.538;2022-07-23T15:14:15;27.61;46.14
69731;SHT31;56996;48.138;11.538;2022-07-23T15:16:53;27.69;46.09
69731;SHT31;56996;48.138;11.538;2022-07-23T15:19:20;27.78;45.95
69731;SHT31;56996;48.138;11.538;2022-07-23T15:21:46;27.85;45.91
69731;SHT31;56996;48.138;11.538;2022-07-23T15:24:14;28.01;45.65
69731;SHT31;56996;48.138;11.538;2022-07-23T15:26:41;28.03;45.57
69731;SHT31;56996;48.138;11.538;2022-07-23T15:29:08;27.91;45.83
69731;SHT31;56996;48.138;11.538;2022-07-23T15:31:34;27.96;45.91
69731;SHT31;56996;48.138;11.538;2022-07-23T15:34:02;28.00;45.89
69731;SHT31;56996;48.138;11.538;2022-07-23T15:36:29;27.99;45.93
69731;SHT31;56996;48.138;11.538;2022-07-23T15:38:56;28.01;45.96
69731;SHT31;56996;48.138;11.538;2022-07-23T15:41:23;28.15;45.75
69731;SHT31;56996;48.138;11.538;2022-07-23T15:43:51;28.21;45.48
69731;SHT31;56996;48.138;11.538;2022-07-23T15:46:18;28.21;45.36
69731;SHT31;56996;48.138;11.538;2022-07-23T15:48:52;28.21;45.35
69731;SHT31;56996;48.138;11.538;2022-07-23T15:51:20;28.24;45.35
69731;SHT31;56996;48.138;11.538;2022-07-23T15:53:46;28.25;45.22
69731;SHT31;56996;48.138;11.538;2022-07-23T15:56:14;28.24;45.34
69731;SHT31;56996;48.138;11.538;2022-07-23T15:58:43;28.26;45.17
69731;SHT31;56996;48.138;11.538;2022-07-23T16:01:10;28.27;45.27
69731;SHT31;56996;48.138;11.538;2022-07-23T16:03:39;28.23;45.41
69731;SHT31;56996;48.138;11.538;2022-07-23T16:06:06;28.08;45.74
69731;SHT31;56996;48.138;11.538;2022-07-23T16:08:43;28.04;45.79
69731;SHT31;56996;48.138;11.538;2022-07-23T16:11:11;28.05;45.83
69731;SHT31;56996;48.138;11.538;2022-07-23T16:13:39;28.04;45.99
69731;SHT31;56996;48.138;11.538;2022-07-23T16:16:07;28.02;46.11
69731;SHT31;56996;48.138;11.538;2022-07-23T16:18:35;27.92;46.48